sensor_id;sensor_type;location;lat;lon;timestamp;temperature;humidity
45803;DHT22;31504;51.716;9.184;2023-05-29T00:00:00;20.10;54.10
45803;DHT22;31504;51.716;9.184;2023-05-29T00:03:00;20.10;54.20
45803;DHT22;31504;51.716;9.184;2023-05-29T00:06:02;20.10;54.20
45803;DHT22;31504;51.716;9.184;2023-05-29T00:09:02;20.10;54.20
45803;DHT22;31504;51.716;9.184;2023-05-29T00:12:04;20.10;54.20
45803;DHT22;31504;51.716;9.184;2023-05-29T00:15:06;20.10;54.20
45803;DHT22;31504;51.716;9.184;2023-05-29T00:18:06;20.10;54.20
45803;DHT22;31504;51.716;9.184;2023-05-29T00:21:07;20.10;54.20
45803;DHT22;31504;51.716;9.184;2023-05-29T00:24:07;20.10;54.20
45803;DHT22;31504;51.716;9.184;2023-05-29T00:27:08;20.10;54.20
45803;DHT22;31504;51.716;9.184;2023-05-29T00:30:09;20.10;54.20
45803;DHT22;31504;51.716;9.184;2023-05-29T00:33:09;20.10;54.30
45803;DHT22;31504;51.716;9.184;2023-05-29T00:36:10;20.10;54.20
45803;DHT22;31504;51.716;9.184;2023-05-29T00:39:10;20.10;54.30
45803;DHT22;31504;51.716;9.184;2023-05-29T00:42:11;20.10;54.40
45803;DHT22;31504;51.716;9.184;2023-05-29T00:45:11;20.10;54.40
45803;DHT22;31504;51.716;9.184;2023-05-29T00:48:13;20.10;54.40
45803;DHT22;31504;51.716;9.184;2023-05-29T00:51:13;20.10;54.40
45803;DHT22;31504;51.716;9.184;2023-05-29T00:54:17;20.10;54.40
45803;DHT22;31504;51.716;9.184;2023-05-29T00:57:21;20.10;54.40
45803;DHT22;31504;51.716;9.184;2023-05-29T01:00:22;20.10;54.50
45803;DHT22;31504;51.716;9.184;2023-05-29T01:03:23;20.10;54.50
45803;DHT22;31504;51.716;9.184;2023-05-29T01:06:24;20.10;54.50
45803;DHT22;31504;51.716;9.184;2023-05-29T01:09:25;20.10;54.50
45803;DHT22;31504;51.716;9.184;2023-05-29T01:18:47;20.10;54.50
45803;DHT22;31504;51.716;9.184;2023-05-29T01:21:56;20.10;54.60
45803;DHT22;31504;51.716;9.184;2023-05-29T01:28:02;20.10;54.60
45803;DHT22;31504;51.716;9.184;2023-05-29T01:31:04;20.10;54.60
45803;DHT22;31504;51.716;9.184;2023-05-29T01:34:05;20.10;54.70
45803;DHT22;31504;51.716;9.184;2023-05-29T01:37:06;20.10;55.20
45803;DHT22;31504;51.716;9.184;2023-05-29T01:40:06;20.10;54.60
45803;DHT22;31504;51.716;9.184;2023-05-29T01:43:07;20.00;54.60
45803;DHT22;31504;51.716;9.184;2023-05-29T01:46:08;20.10;54.70
45803;DHT22;31504;51.716;9.184;2023-05-29T01:49:08;20.00;55.30
45803;DHT22;31504;51.716;9.184;2023-05-29T01:52:10;20.10;54.70
45803;DHT22;31504;51.716;9.184;2023-05-29T01:55:10;20.10;54.70
45803;DHT22;31504;51.716;9.184;2023-05-29T01:58:11;20.10;54.70
45803;DHT22;31504;51.716;9.184;2023-05-29T02:01:11;20.10;54.80
45803;DHT22;31504;51.716;9.184;2023-05-29T02:04:12;20.10;54.80
45803;DHT22;31504;51.716;9.184;2023-05-29T02:07:12;20.10;54.80
45803;DHT22;31504;51.716;9.184;2023-05-29T02:10:13;20.10;54.80
45803;DHT22;31504;51.716;9.184;2023-05-29T02:13:13;20.10;54.80
45803;DHT22;31504;51.716;9.184;2023-05-29T02:16:14;20.10;54.80
45803;DHT22;31504;51.716;9.184;2023-05-29T02:19:15;20.10;54.80
45803;DHT22;31504;51.716;9.184;2023-05-29T02:22:17;20.10;54.80
45803;DHT22;31504;51.716;9.184;2023-05-29T02:25:18;20.10;54.80
45803;DHT22;31504;51.716;9.184;2023-05-29T02:28:18;20.10;54.80
45803;DHT22;31504;51.716;9.184;2023-05-29T02:31:18;20.10;54.90
45803;DHT22;31504;51.716;9.184;2023-05-29T02:34:19;20.10;54.90
45803;DHT22;31504;51.716;9.184;2023-05-29T02:37:22;20.10;54.90
45803;DHT22;31504;51.716;9.184;2023-05-29T02:40:25;20.10;54.90
45803;DHT22;31504;51.716;9.184;2023-05-29T02:43:26;20.10;54.90
45803;DHT22;31504;51.716;9.184;2023-05-29T02:46:26;20.10;54.90
45803;DHT22;31504;51.716;9.184;2023-05-29T02:49:26;20.10;54.90
45803;DHT22;31504;51.716;9.184;2023-05-29T02:52:27;20.10;54.90
45803;DHT22;31504;51.716;9.184;2023-05-29T02:55:28;20.10;54.90
45803;DHT22;31504;51.716;9.184;2023-05-29T02:58:28;20.10;55.00
45803;DHT22;31504;51.716;9.184;2023-05-29T03:01:29;20.10;55.50
45803;DHT22;31504;51.716;9.184;2023-05-29T03:04:29;20.10;55.60
45803;DHT22;31504;51.716;9.184;2023-05-29T03:07:30;20.10;55.00
45803;DHT22;31504;51.716;9.184;2023-05-29T03:10:30;20.30;55.00
45803;DHT22;31504;51.716;9.184;2023-05-29T03:13:31;20.70;53.60
45803;DHT22;31504;51.716;9.184;2023-05-29T03:16:34;20.50;53.70
45803;DHT22;31504;51.716;9.184;2023-05-29T03:19:36;20.20;54.40
45803;DHT22;31504;51.716;9.184;2023-05-29T03:22:37;20.10;54.70
45803;DHT22;31504;51.716;9.184;2023-05-29T03:25:38;20.10;54.80
45803;DHT22;31504;51.716;9.184;2023-05-29T03:28:38;20.10;54.90
45803;DHT22;31504;51.716;9.184;2023-05-29T03:31:39;20.10;55.00
45803;DHT22;31504;51.716;9.184;2023-05-29T03:34:39;20.10;55.00
45803;DHT22;31504;51.716;9.184;2023-05-29T03:37:40;20.10;55.00
45803;DHT22;31504;51.716;9.184;2023-05-29T03:40:41;20.10;55.00
45803;DHT22;31504;51.716;9.184;2023-05-29T03:43:41;20.10;55.10
45803;DHT22;31504;51.716;9.184;2023-05-29T03:46:42;20.10;55.10
45803;DHT22;31504;51.716;9.184;2023-05-29T03:49:42;20.10;55.10
45803;DHT22;31504;51.716;9.184;2023-05-29T03:52:43;20.10;55.10
45803;DHT22;31504;51.716;9.184;2023-05-29T03:55:43;20.10;55.10
45803;DHT22;31504;51.716;9.184;2023-05-29T03:58:44;20.00;55.60
45803;DHT22;31504;51.716;9.184;2023-05-29T04:01:44;20.10;55.10
45803;DHT22;31504;51.716;9.184;2023-05-29T04:04:44;20.10;55.20
45803;DHT22;31504;51.716;9.184;2023-05-29T04:07:45;20.10;55.10
45803;DHT22;31504;51.716;9.184;2023-05-29T04:10:46;20.10;55.20
45803;DHT22;31504;51.716;9.184;2023-05-29T04:13:47;20.10;55.20
45803;DHT22;31504;51.716;9.184;2023-05-29T04:16:47;20.10;55.10
45803;DHT22;31504;51.716;9.184;2023-05-29T04:19:48;20.10;55.10
45803;DHT22;31504;51.716;9.184;2023-05-29T04:22:48;20.10;55.20
45803;DHT22;31504;51.716;9.184;2023-05-29T04:25:49;20.10;55.20
45803;DHT22;31504;51.716;9.184;2023-05-29T04:28:53;20.10;55.20
45803;DHT22;31504;51.716;9.184;2023-05-29T04:31:57;20.10;55.20
45803;DHT22;31504;51.716;9.184;2023-05-29T04:34:58;20.10;55.20
45803;DHT22;31504;51.716;9.184;2023-05-29T04:38:02;20.10;55.20
45803;DHT22;31504;51.716;9.184;2023-05-29T04:41:05;20.10;55.20
45803;DHT22;31504;51.716;9.184;2023-05-29T04:44:08;20.10;55.20
45803;DHT22;31504;51.716;9.184;2023-05-29T04:47:11;20.10;55.20
45803;DHT22;31504;51.716;9.184;2023-05-29T04:50:13;20.10;55.20
45803;DHT22;31504;51.716;9.184;2023-05-29T04:53:14;20.10;55.20
45803;DHT22;31504;51.716;9.184;2023-05-29T04:56:15;20.10;55.20
45803;DHT22;31504;51.716;9.184;2023-05-29T04:59:15;20.10;55.20
45803;DHT22;31504;51.716;9.184;2023-05-29T05:02:16;20.10;55.30
45803;DHT22;31504;51.716;9.184;2023-05-29T05:05:17;20.10;55.20
45803;DHT22;31504;51.716;9.184;2023-05-29T05:08:17;20.10;55.30
45803;DHT22;31504;51.716;9.184;2023-05-29T05:11:18;20.10;55.20
45803;DHT22;31504;51.716;9.184;2023-05-29T05:14:18;20.10;55.30
45803;DHT22;31504;51.716;9.184;2023-05-29T05:17:19;20.10;55.30
45803;DHT22;31504;51.716;9.184;2023-05-29T05:20:20;20.10;55.20
45803;DHT22;31504;51.716;9.184;2023-05-29T05:23:21;20.10;55.30
45803;DHT22;31504;51.716;9.184;2023-05-29T05:26:21;20.10;55.30
45803;DHT22;31504;51.716;9.184;2023-05-29T05:29:22;20.10;55.30
45803;DHT22;31504;51.716;9.184;2023-05-29T05:32:23;20.10;55.30
45803;DHT22;31504;51.716;9.184;2023-05-29T05:35:23;20.10;55.30
45803;DHT22;31504;51.716;9.184;2023-05-29T05:38:24;20.10;55.30
45803;DHT22;31504;51.716;9.184;2023-05-29T05:41:24;20.10;55.30
45803;DHT22;31504;51.716;9.184;2023-05-29T05:44:25;20.10;55.30
45803;DHT22;31504;51.716;9.184;2023-05-29T05:47:25;20.10;55.30
45803;DHT22;31504;51.716;9.184;2023-05-29T05:50:27;20.10;55.30
45803;DHT22;31504;51.716;9.184;2023-05-29T05:53:28;20.10;55.30
45803;DHT22;31504;51.716;9.184;2023-05-29T05:56:28;20.10;55.30
45803;DHT22;31504;51.716;9.184;2023-05-29T05:59:29;20.10;55.30
45803;DHT22;31504;51.716;9.184;2023-05-29T06:02:29;20.10;55.30
45803;DHT22;31504;51.716;9.184;2023-05-29T06:05:30;20.10;55.30
45803;DHT22;31504;51.716;9.184;2023-05-29T06:08:30;20.10;55.30
45803;DHT22;31504;51.716;9.184;2023-05-29T06:11:30;20.10;55.40
45803;DHT22;31504;51.716;9.184;2023-05-29T06:14:32;20.10;55.30
45803;DHT22;31504;51.716;9.184;2023-05-29T06:17:32;20.10;55.90
45803;DHT22;31504;51.716;9.184;2023-05-29T06:20:32;20.10;55.30
45803;DHT22;31504;51.716;9.184;2023-05-29T06:23:33;20.10;55.30
45803;DHT22;31504;51.716;9.184;2023-05-29T06:26:34;20.10;55.40
45803;DHT22;31504;51.716;9.184;2023-05-29T06:29:34;20.10;55.30
45803;DHT22;31504;51.716;9.184;2023-05-29T06:32:35;20.10;55.30
45803;DHT22;31504;51.716;9.184;2023-05-29T06:35:35;20.10;55.30
45803;DHT22;31504;51.716;9.184;2023-05-29T06:38:36;20.10;55.30
45803;DHT22;31504;51.716;9.184;2023-05-29T06:41:36;20.20;55.30
45803;DHT22;31504;51.716;9.184;2023-05-29T06:44:37;20.20;55.30
45803;DHT22;31504;51.716;9.184;2023-05-29T06:47:37;20.20;55.10
45803;DHT22;31504;51.716;9.184;2023-05-29T06:50:38;20.30;54.80
45803;DHT22;31504;51.716;9.184;2023-05-29T06:53:38;20.30;54.90
45803;DHT22;31504;51.716;9.184;2023-05-29T06:56:39;20.40;54.50
45803;DHT22;31504;51.716;9.184;2023-05-29T06:59:39;20.40;54.50
45803;DHT22;31504;51.716;9.184;2023-05-29T07:02:41;20.40;54.40
45803;DHT22;31504;51.716;9.184;2023-05-29T07:05:45;20.70;53.40
45803;DHT22;31504;51.716;9.184;2023-05-29T07:08:46;20.80;52.90
45803;DHT22;31504;51.716;9.184;2023-05-29T07:11:47;20.70;52.60
45803;DHT22;31504;51.716;9.184;2023-05-29T07:14:47;20.50;53.80
45803;DHT22;31504;51.716;9.184;2023-05-29T07:17:48;20.50;52.50
45803;DHT22;31504;51.716;9.184;2023-05-29T07:20:48;20.60;52.20
45803;DHT22;31504;51.716;9.184;2023-05-29T07:23:49;20.60;52.20
45803;DHT22;31504;51.716;9.184;2023-05-29T07:26:49;20.70;52.20
45803;DHT22;31504;51.716;9.184;2023-05-29T07:29:50;20.60;52.20
45803;DHT22;31504;51.716;9.184;2023-05-29T07:32:50;20.60;52.00
45803;DHT22;31504;51.716;9.184;2023-05-29T07:35:51;20.60;52.00
45803;DHT22;31504;51.716;9.184;2023-05-29T07:38:51;20.60;52.00
45803;DHT22;31504;51.716;9.184;2023-05-29T07:41:53;20.60;51.90
45803;DHT22;31504;51.716;9.184;2023-05-29T07:44:54;20.50;51.80
45803;DHT22;31504;51.716;9.184;2023-05-29T07:47:54;20.60;51.80
45803;DHT22;31504;51.716;9.184;2023-05-29T07:50:55;20.60;51.80
45803;DHT22;31504;51.716;9.184;2023-05-29T07:53:55;20.60;51.80
45803;DHT22;31504;51.716;9.184;2023-05-29T07:56:56;20.50;51.80
45803;DHT22;31504;51.716;9.184;2023-05-29T07:59:56;20.50;51.80
45803;DHT22;31504;51.716;9.184;2023-05-29T08:02:57;20.50;51.80
45803;DHT22;31504;51.716;9.184;2023-05-29T08:05:57;20.50;52.00
45803;DHT22;31504;51.716;9.184;2023-05-29T08:08:58;20.50;51.80
45803;DHT22;31504;51.716;9.184;2023-05-29T08:11:58;20.50;51.80
45803;DHT22;31504;51.716;9.184;2023-05-29T08:15:01;20.50;51.90
45803;DHT22;31504;51.716;9.184;2023-05-29T08:18:02;20.50;51.90
45803;DHT22;31504;51.716;9.184;2023-05-29T08:21:03;20.50;51.80
45803;DHT22;31504;51.716;9.184;2023-05-29T08:24:03;20.40;51.90
45803;DHT22;31504;51.716;9.184;2023-05-29T08:27:06;20.40;52.10
45803;DHT22;31504;51.716;9.184;2023-05-29T08:30:07;20.40;52.00
45803;DHT22;31504;51.716;9.184;2023-05-29T08:33:07;20.40;52.00
45803;DHT22;31504;51.716;9.184;2023-05-29T08:36:08;20.40;52.00
45803;DHT22;31504;51.716;9.184;2023-05-29T08:39:09;20.40;52.00
45803;DHT22;31504;51.716;9.184;2023-05-29T08:42:12;20.40;52.10
45803;DHT22;31504;51.716;9.184;2023-05-29T08:45:13;20.40;52.20
45803;DHT22;31504;51.716;9.184;2023-05-29T08:48:14;20.40;52.30
45803;DHT22;31504;51.716;9.184;2023-05-29T08:51:19;20.40;52.40
45803;DHT22;31504;51.716;9.184;2023-05-29T08:54:21;20.40;52.50
45803;DHT22;31504;51.716;9.184;2023-05-29T08:57:22;20.40;52.70
45803;DHT22;31504;51.716;9.184;2023-05-29T09:00:23;20.40;52.70
45803;DHT22;31504;51.716;9.184;2023-05-29T09:03:28;20.40;52.70
45803;DHT22;31504;51.716;9.184;2023-05-29T09:06:29;20.40;52.80
45803;DHT22;31504;51.716;9.184;2023-05-29T09:09:30;20.40;52.70
45803;DHT22;31504;51.716;9.184;2023-05-29T09:12:32;20.40;52.80
45803;DHT22;31504;51.716;9.184;2023-05-29T09:15:33;20.40;52.80
45803;DHT22;31504;51.716;9.184;2023-05-29T09:18:34;20.40;52.80
45803;DHT22;31504;51.716;9.184;2023-05-29T09:21:34;20.30;52.90
45803;DHT22;31504;51.716;9.184;2023-05-29T09:24:35;20.40;52.90
45803;DHT22;31504;51.716;9.184;2023-05-29T09:27:39;20.40;53.00
45803;DHT22;31504;51.716;9.184;2023-05-29T09:30:43;20.40;52.90
45803;DHT22;31504;51.716;9.184;2023-05-29T09:33:47;20.40;52.90
45803;DHT22;31504;51.716;9.184;2023-05-29T09:36:48;20.40;53.00
45803;DHT22;31504;51.716;9.184;2023-05-29T09:39:48;20.40;53.10
45803;DHT22;31504;51.716;9.184;2023-05-29T09:42:49;20.40;53.10
45803;DHT22;31504;51.716;9.184;2023-05-29T09:45:49;20.40;53.20
45803;DHT22;31504;51.716;9.184;2023-05-29T09:48:50;20.40;53.40
45803;DHT22;31504;51.716;9.184;2023-05-29T09:51:53;20.50;53.50
45803;DHT22;31504;51.716;9.184;2023-05-29T09:54:54;20.50;53.30
45803;DHT22;31504;51.716;9.184;2023-05-29T09:57:57;20.50;53.40
45803;DHT22;31504;51.716;9.184;2023-05-29T10:00:57;20.50;53.50
45803;DHT22;31504;51.716;9.184;2023-05-29T10:03:58;20.50;53.50
45803;DHT22;31504;51.716;9.184;2023-05-29T10:07:09;20.50;53.50
45803;DHT22;31504;51.716;9.184;2023-05-29T10:10:11;20.50;53.70
45803;DHT22;31504;51.716;9.184;2023-05-29T10:13:12;20.50;53.80
45803;DHT22;31504;51.716;9.184;2023-05-29T10:16:12;20.50;54.00
45803;DHT22;31504;51.716;9.184;2023-05-29T10:19:16;20.50;54.00
45803;DHT22;31504;51.716;9.184;2023-05-29T10:22:19;20.50;53.90
45803;DHT22;31504;51.716;9.184;2023-05-29T10:25:20;20.60;53.90
45803;DHT22;31504;51.716;9.184;2023-05-29T10:28:24;20.50;53.90
45803;DHT22;31504;51.716;9.184;2023-05-29T10:31:33;20.50;53.90
45803;DHT22;31504;51.716;9.184;2023-05-29T10:34:39;20.50;53.90
45803;DHT22;31504;51.716;9.184;2023-05-29T10:37:51;20.50;53.80
45803;DHT22;31504;51.716;9.184;2023-05-29T10:40:52;20.50;53.70
45803;DHT22;31504;51.716;9.184;2023-05-29T10:50:01;20.50;53.50
45803;DHT22;31504;51.716;9.184;2023-05-29T10:53:02;20.50;53.40
45803;DHT22;31504;51.716;9.184;2023-05-29T10:56:02;20.60;53.30
45803;DHT22;31504;51.716;9.184;2023-05-29T10:59:03;20.60;53.30
45803;DHT22;31504;51.716;9.184;2023-05-29T11:02:04;20.60;53.10
45803;DHT22;31504;51.716;9.184;2023-05-29T11:05:19;20.50;53.20
45803;DHT22;31504;51.716;9.184;2023-05-29T11:08:22;20.60;53.20
45803;DHT22;31504;51.716;9.184;2023-05-29T11:11:31;20.60;53.20
45803;DHT22;31504;51.716;9.184;2023-05-29T11:14:43;20.60;53.20
45803;DHT22;31504;51.716;9.184;2023-05-29T11:17:44;20.60;53.20
45803;DHT22;31504;51.716;9.184;2023-05-29T11:20:57;20.60;53.20
45803;DHT22;31504;51.716;9.184;2023-05-29T11:23:58;20.60;53.00
45803;DHT22;31504;51.716;9.184;2023-05-29T11:26:59;20.60;52.80
45803;DHT22;31504;51.716;9.184;2023-05-29T11:30:05;20.60;52.80
45803;DHT22;31504;51.716;9.184;2023-05-29T11:33:06;20.60;52.90
45803;DHT22;31504;51.716;9.184;2023-05-29T11:36:08;20.60;53.00
45803;DHT22;31504;51.716;9.184;2023-05-29T11:39:09;20.60;53.20
45803;DHT22;31504;51.716;9.184;2023-05-29T11:42:10;20.60;53.10
45803;DHT22;31504;51.716;9.184;2023-05-29T11:45:14;20.60;53.10
45803;DHT22;31504;51.716;9.184;2023-05-29T11:48:15;20.60;53.10
45803;DHT22;31504;51.716;9.184;2023-05-29T11:51:16;20.70;53.10
45803;DHT22;31504;51.716;9.184;2023-05-29T11:54:19;20.70;53.20
45803;DHT22;31504;51.716;9.184;2023-05-29T11:57:19;20.70;53.20
45803;DHT22;31504;51.716;9.184;2023-05-29T12:00:20;20.70;53.20
45803;DHT22;31504;51.716;9.184;2023-05-29T12:03:22;20.70;53.30
45803;DHT22;31504;51.716;9.184;2023-05-29T12:06:32;20.70;53.30
45803;DHT22;31504;51.716;9.184;2023-05-29T12:09:34;20.80;53.20
45803;DHT22;31504;51.716;9.184;2023-05-29T12:12:34;20.70;53.20
45803;DHT22;31504;51.716;9.184;2023-05-29T12:15:35;20.80;53.30
45803;DHT22;31504;51.716;9.184;2023-05-29T12:18:36;20.80;52.90
45803;DHT22;31504;51.716;9.184;2023-05-29T12:21:36;20.80;52.70
45803;DHT22;31504;51.716;9.184;2023-05-29T12:24:41;20.80;52.80
45803;DHT22;31504;51.716;9.184;2023-05-29T12:27:42;20.80;52.90
45803;DHT22;31504;51.716;9.184;2023-05-29T12:30:44;20.80;53.00
45803;DHT22;31504;51.716;9.184;2023-05-29T12:33:49;20.80;52.90
45803;DHT22;31504;51.716;9.184;2023-05-29T12:36:49;20.80;52.90
45803;DHT22;31504;51.716;9.184;2023-05-29T12:40:08;20.80;52.70
45803;DHT22;31504;51.716;9.184;2023-05-29T12:43:09;20.80;52.70
45803;DHT22;31504;51.716;9.184;2023-05-29T12:46:09;20.80;52.20
45803;DHT22;31504;51.716;9.184;2023-05-29T12:49:13;20.80;52.20
45803;DHT22;31504;51.716;9.184;2023-05-29T12:52:14;20.80;52.30
45803;DHT22;31504;51.716;9.184;2023-05-29T12:55:15;20.80;52.30
45803;DHT22;31504;51.716;9.184;2023-05-29T12:58:16;20.90;52.30
45803;DHT22;31504;51.716;9.184;2023-05-29T13:01:16;20.90;52.20
45803;DHT22;31504;51.716;9.184;2023-05-29T13:04:17;20.80;52.30
45803;DHT22;31504;51.716;9.184;2023-05-29T13:07:17;20.90;52.00
45803;DHT22;31504;51.716;9.184;2023-05-29T13:10:18;20.80;52.10
45803;DHT22;31504;51.716;9.184;2023-05-29T13:13:18;20.90;51.70
45803;DHT22;31504;51.716;9.184;2023-05-29T13:16:20;20.80;51.10
45803;DHT22;31504;51.716;9.184;2023-05-29T13:19:21;20.80;51.20
45803;DHT22;31504;51.716;9.184;2023-05-29T13:22:22;20.80;51.40
45803;DHT22;31504;51.716;9.184;2023-05-29T13:25:22;20.80;51.80
45803;DHT22;31504;51.716;9.184;2023-05-29T13:28:24;20.90;51.70
45803;DHT22;31504;51.716;9.184;2023-05-29T13:31:24;20.90;51.70
45803;DHT22;31504;51.716;9.184;2023-05-29T13:34:25;20.90;51.90
45803;DHT22;31504;51.716;9.184;2023-05-29T13:37:28;21.00;52.00
45803;DHT22;31504;51.716;9.184;2023-05-29T13:40:29;21.00;51.60
45803;DHT22;31504;51.716;9.184;2023-05-29T13:43:30;21.00;51.50
45803;DHT22;31504;51.716;9.184;2023-05-29T13:46:32;21.00;51.60
45803;DHT22;31504;51.716;9.184;2023-05-29T13:49:32;21.00;51.60
45803;DHT22;31504;51.716;9.184;2023-05-29T13:52:33;21.00;51.10
45803;DHT22;31504;51.716;9.184;2023-05-29T13:55:33;21.00;50.70
45803;DHT22;31504;51.716;9.184;2023-05-29T13:58:34;21.00;50.20
45803;DHT22;31504;51.716;9.184;2023-05-29T14:01:34;21.00;50.10
45803;DHT22;31504;51.716;9.184;2023-05-29T14:04:35;21.00;50.10
45803;DHT22;31504;51.716;9.184;2023-05-29T14:07:35;20.90;50.20
45803;DHT22;31504;51.716;9.184;2023-05-29T14:10:36;21.00;50.40
45803;DHT22;31504;51.716;9.184;2023-05-29T14:13:36;21.00;50.20
45803;DHT22;31504;51.716;9.184;2023-05-29T14:16:37;21.00;50.30
45803;DHT22;31504;51.716;9.184;2023-05-29T14:19:37;21.00;50.40
45803;DHT22;31504;51.716;9.184;2023-05-29T14:22:46;21.00;50.80
45803;DHT22;31504;51.716;9.184;2023-05-29T14:25:46;21.00;50.90
45803;DHT22;31504;51.716;9.184;2023-05-29T14:28:47;21.00;51.00
45803;DHT22;31504;51.716;9.184;2023-05-29T14:31:47;21.00;51.00
45803;DHT22;31504;51.716;9.184;2023-05-29T14:34:48;21.00;50.80
45803;DHT22;31504;51.716;9.184;2023-05-29T14:37:48;21.00;50.40
45803;DHT22;31504;51.716;9.184;2023-05-29T14:40:49;21.00;50.70
45803;DHT22;31504;51.716;9.184;2023-05-29T14:43:49;21.00;50.70
45803;DHT22;31504;51.716;9.184;2023-05-29T14:46:51;21.00;50.80
45803;DHT22;31504;51.716;9.184;2023-05-29T14:49:52;21.10;50.90
45803;DHT22;31504;51.716;9.184;2023-05-29T14:52:52;21.00;50.90
45803;DHT22;31504;51.716;9.184;2023-05-29T14:55:53;21.00;51.10
45803;DHT22;31504;51.716;9.184;2023-05-29T14:58:53;21.00;51.20
45803;DHT22;31504;51.716;9.184;2023-05-29T15:01:54;21.00;51.30
45803;DHT22;31504;51.716;9.184;2023-05-29T15:04:54;21.00;51.40
45803;DHT22;31504;51.716;9.184;2023-05-29T15:07:56;21.00;51.30
45803;DHT22;31504;51.716;9.184;2023-05-29T15:10:56;21.00;51.60
45803;DHT22;31504;51.716;9.184;2023-05-29T15:13:57;21.00;51.80
45803;DHT22;31504;51.716;9.184;2023-05-29T15:16:58;21.00;51.80
45803;DHT22;31504;51.716;9.184;2023-05-29T15:19:58;21.00;51.80
45803;DHT22;31504;51.716;9.184;2023-05-29T15:23:01;21.00;51.80
45803;DHT22;31504;51.716;9.184;2023-05-29T15:26:01;21.00;51.80
45803;DHT22;31504;51.716;9.184;2023-05-29T15:29:03;21.00;51.90
45803;DHT22;31504;51.716;9.184;2023-05-29T15:32:03;21.00;52.10
45803;DHT22;31504;51.716;9.184;2023-05-29T15:35:04;21.00;52.20
45803;DHT22;31504;51.716;9.184;2023-05-29T15:38:05;21.00;52.20
45803;DHT22;31504;51.716;9.184;2023-05-29T15:41:05;21.00;52.30
45803;DHT22;31504;51.716;9.184;2023-05-29T15:44:06;21.00;52.40
45803;DHT22;31504;51.716;9.184;2023-05-29T15:47:06;21.00;52.40
45803;DHT22;31504;51.716;9.184;2023-05-29T15:50:07;21.00;52.40
45803;DHT22;31504;51.716;9.184;2023-05-29T15:53:07;21.00;52.60
45803;DHT22;31504;51.716;9.184;2023-05-29T15:56:08;21.00;52.60
45803;DHT22;31504;51.716;9.184;2023-05-29T15:59:08;21.00;52.70
45803;DHT22;31504;51.716;9.184;2023-05-29T16:02:09;21.00;52.70
45803;DHT22;31504;51.716;9.184;2023-05-29T16:05:10;21.00;52.80
45803;DHT22;31504;51.716;9.184;2023-05-29T16:08:11;21.10;53.40
45803;DHT22;31504;51.716;9.184;2023-05-29T16:11:11;21.10;52.80
45803;DHT22;31504;51.716;9.184;2023-05-29T16:14:11;21.10;52.90
45803;DHT22;31504;51.716;9.184;2023-05-29T16:17:12;21.00;53.00
45803;DHT22;31504;51.716;9.184;2023-05-29T16:20:13;21.10;53.10
45803;DHT22;31504;51.716;9.184;2023-05-29T16:23:14;21.00;53.00
45803;DHT22;31504;51.716;9.184;2023-05-29T16:26:14;21.00;53.30
45803;DHT22;31504;51.716;9.184;2023-05-29T16:29:15;21.00;53.60
45803;DHT22;31504;51.716;9.184;2023-05-29T16:32:15;21.00;53.50
45803;DHT22;31504;51.716;9.184;2023-05-29T16:35:16;21.00;53.70
45803;DHT22;31504;51.716;9.184;2023-05-29T16:38:16;21.00;53.60
45803;DHT22;31504;51.716;9.184;2023-05-29T16:41:17;21.00;53.50
45803;DHT22;31504;51.716;9.184;2023-05-29T16:44:17;21.00;53.70
45803;DHT22;31504;51.716;9.184;2023-05-29T16:47:17;21.00;54.40
45803;DHT22;31504;51.716;9.184;2023-05-29T16:50:18;21.10;53.80
45803;DHT22;31504;51.716;9.184;2023-05-29T16:53:20;21.10;53.70
45803;DHT22;31504;51.716;9.184;2023-05-29T16:56:21;21.10;53.60
45803;DHT22;31504;51.716;9.184;2023-05-29T16:59:21;21.00;53.90
45803;DHT22;31504;51.716;9.184;2023-05-29T17:02:22;21.10;53.80
45803;DHT22;31504;51.716;9.184;2023-05-29T17:05:22;21.00;53.60
45803;DHT22;31504;51.716;9.184;2023-05-29T17:08:23;21.00;53.90
45803;DHT22;31504;51.716;9.184;2023-05-29T17:11:24;21.00;53.80
45803;DHT22;31504;51.716;9.184;2023-05-29T17:14:25;20.90;53.80
45803;DHT22;31504;51.716;9.184;2023-05-29T17:17:25;20.90;54.00
45803;DHT22;31504;51.716;9.184;2023-05-29T17:20:26;20.90;53.60
45803;DHT22;31504;51.716;9.184;2023-05-29T17:23:26;20.80;53.70
45803;DHT22;31504;51.716;9.184;2023-05-29T17:26:27;20.80;53.90
45803;DHT22;31504;51.716;9.184;2023-05-29T17:29:27;20.80;54.00
45803;DHT22;31504;51.716;9.184;2023-05-29T17:32:28;20.80;54.00
45803;DHT22;31504;51.716;9.184;2023-05-29T17:35:28;20.80;54.20
45803;DHT22;31504;51.716;9.184;2023-05-29T17:38:29;20.80;53.90
45803;DHT22;31504;51.716;9.184;2023-05-29T17:41:29;20.80;53.70
45803;DHT22;31504;51.716;9.184;2023-05-29T17:44:30;20.80;53.80
45803;DHT22;31504;51.716;9.184;2023-05-29T17:47:30;20.80;54.20
45803;DHT22;31504;51.716;9.184;2023-05-29T17:50:30;20.80;53.90
45803;DHT22;31504;51.716;9.184;2023-05-29T17:53:34;20.80;53.80
45803;DHT22;31504;51.716;9.184;2023-05-29T17:56:35;20.80;53.50
45803;DHT22;31504;51.716;9.184;2023-05-29T17:59:36;20.70;53.80
45803;DHT22;31504;51.716;9.184;2023-05-29T18:02:37;20.60;53.90
45803;DHT22;31504;51.716;9.184;2023-05-29T18:05:37;20.60;54.80
45803;DHT22;31504;51.716;9.184;2023-05-29T18:08:37;20.70;54.10
45803;DHT22;31504;51.716;9.184;2023-05-29T18:11:38;20.70;53.90
45803;DHT22;31504;51.716;9.184;2023-05-29T18:14:39;20.70;53.60
45803;DHT22;31504;51.716;9.184;2023-05-29T18:17:40;20.80;53.90
45803;DHT22;31504;51.716;9.184;2023-05-29T18:20:40;20.80;53.70
45803;DHT22;31504;51.716;9.184;2023-05-29T18:23:41;20.70;53.60
45803;DHT22;31504;51.716;9.184;2023-05-29T18:26:44;20.70;53.80
45803;DHT22;31504;51.716;9.184;2023-05-29T18:29:44;20.60;53.70
45803;DHT22;31504;51.716;9.184;2023-05-29T18:32:45;20.60;53.80
45803;DHT22;31504;51.716;9.184;2023-05-29T18:35:45;20.60;53.80
45803;DHT22;31504;51.716;9.184;2023-05-29T18:38:47;20.50;53.80
45803;DHT22;31504;51.716;9.184;2023-05-29T18:41:49;20.60;54.00
45803;DHT22;31504;51.716;9.184;2023-05-29T18:44:50;20.60;54.00
45803;DHT22;31504;51.716;9.184;2023-05-29T18:47:50;20.50;53.90
45803;DHT22;31504;51.716;9.184;2023-05-29T18:50:51;20.50;53.90
45803;DHT22;31504;51.716;9.184;2023-05-29T18:53:52;20.60;53.90
45803;DHT22;31504;51.716;9.184;2023-05-29T18:56:52;20.50;53.90
45803;DHT22;31504;51.716;9.184;2023-05-29T18:59:53;20.60;53.90
45803;DHT22;31504;51.716;9.184;2023-05-29T19:02:54;20.50;54.00
45803;DHT22;31504;51.716;9.184;2023-05-29T19:05:55;20.50;54.00
45803;DHT22;31504;51.716;9.184;2023-05-29T19:08:55;20.50;54.10
45803;DHT22;31504;51.716;9.184;2023-05-29T19:11:56;20.50;54.10
45803;DHT22;31504;51.716;9.184;2023-05-29T19:14:56;20.50;54.10
45803;DHT22;31504;51.716;9.184;2023-05-29T19:17:57;20.50;54.10